• Join FlightAware (Why Join?)
  • Login
  • US Flag 
12:52PM EDT


 

Airport Tracker/Info


-or-


 

Live Flight TrackerFlight Track Log ✈ ASQ5963 ✈ 08-Aug-2013 ✈ KIAH - KTYS

Flight Track Log - Related Links

Times and Time Zones

All times are in EDT time to prevent confusion due to time zone crossing. See the ASQ5963 flight status page for this flight to view local times or setup timezone preferences in your user account.

Time Position Orientation Groundspeed Altitude Reporting Facility
EDT Latitude Longitude Course Direction KTS MPH feet Rate Location/Type
02:05PM 29.9594 -95.3414 90° East 158 182 700  Level Houston Center
02:07PM 29.9142 -95.2836 132° Southeast 212 244 2,500 1,380 Climbing Houston Center
02:08PM 29.8644 -95.2228 133° Southeast 255 293 4,000 1,560 Climbing Houston Center
02:09PM 29.8178 -95.1636 132° Southeast 265 305 5,800 1,800 Climbing Houston Center
02:10PM 29.9834 -94.7043 90° East  Level FlightAware Approximate
02:10PM 29.8069 -95.0869 99° East 275 316 7,700  Level Houston Center
02:11PM 29.9833 -94.5785 90° East  Level FlightAware Approximate
02:11PM 29.8433 -95.0069 62° Northeast 289 333 9,500  Level Houston Center
02:12PM 29.8639 -94.9169 75° East 288 331 11,000 1,140 Climbing Houston Center
02:13PM 29.8847 -94.8203 76° East 303 349 11,900 1,200 Climbing Houston Center
02:14PM 29.9119 -94.6942 76° East 331 381 13,500 1,320 Climbing Houston Center
02:15PM 29.9350 -94.5878 76° East 340 391 14,700 1,020 Climbing Houston Center
02:16PM 29.9586 -94.4794 76° East 346 398 15,700 900 Climbing Houston Center
02:17PM 29.9819 -94.3775 75° East 347 399 16,600 960 Climbing Houston Center
02:18PM 30.0056 -94.2408 79° East 359 413 17,700 960 Climbing Houston Center
02:19PM 30.0200 -94.1247 82° East 363 418 18,700 960 Climbing Houston Center
02:20PM 30.0339 -94.0086 82° East 367 422 19,700 960 Climbing Houston Center
02:21PM 30.0481 -93.8889 82° East 370 426 20,700 960 Climbing Houston Center
02:22PM 30.0614 -93.7744 82° East 370 426 21,700 1,020 Climbing Houston Center
02:23PM 30.0781 -93.6342 82° East 372 428 22,900 1,020 Climbing Houston Center
02:24PM 30.0917 -93.5181 82° East 369 425 23,900 960 Climbing Houston Center
02:25PM 30.1058 -93.4033 82° East 368 423 24,900 960 Climbing Houston Center
02:26PM 30.1189 -93.2886 82° East 365 420 25,900 960 Climbing Houston Center
02:27PM 30.1322 -93.1736 82° East 361 415 26,900 1,020 Climbing Houston Center
02:28PM 30.1725 -93.0478 70° East 369 425 28,100 1,020 Climbing Houston Center
02:29PM 30.2247 -92.9514 58° Northeast 359 413 29,100 960 Climbing Houston Center
02:30PM 30.2775 -92.8544 58° Northeast 358 412 30,100 960 Climbing Houston Center
02:31PM 30.3303 -92.7586 57° Northeast 357 411 31,100 900 Climbing Houston Center
02:32PM 30.3833 -92.6619 58° Northeast 358 412 32,000 960 Climbing Houston Center
02:33PM 30.4442 -92.5494 58° Northeast 349 402 33,200 1,020 Climbing Houston Center
02:35PM 30.4944 -92.4547 58° Northeast 341 392 34,200 720 Climbing Houston Center
02:36PM 30.5453 -92.3619 58° Northeast 345 397 34,700 360 Climbing Houston Center
02:37PM 30.5956 -92.2678 58° Northeast 346 398 35,000 120 Climbing Houston Center
02:38PM 30.6494 -92.1681 58° Northeast 368 423 35,000  Level Houston Center
02:39PM 30.7172 -92.0419 58° Northeast 383 441 35,000  Level Houston Center
02:40PM 30.7758 -91.9314 58° Northeast 399 459 35,000  Level Houston Center
02:41PM 30.8381 -91.8156 58° Northeast 413 475 35,000  Level Houston Center
02:42PM 30.9008 -91.6967 58° Northeast 424 488 35,000  Level Houston Center
02:43PM 30.9642 -91.5772 58° Northeast 431 496 35,000  Level Houston Center
02:44PM 31.0403 -91.4339 58° Northeast 434 499 35,000  Level Houston Center
02:45PM 31.1053 -91.3131 58° Northeast 436 502 35,000  Level Houston Center
02:46PM 31.1686 -91.1919 59° Northeast 436 502 35,000  Level Houston Center
02:47PM 31.2311 -91.0697 59° Northeast 438 504 35,000  Level Houston Center
02:48PM 31.2967 -90.9467 58° Northeast 444 511 35,000  Level Houston Center
02:49PM 31.3611 -90.8222 59° Northeast 446 513 35,000  Level Houston Center
02:50PM 31.4253 -90.6967 59° Northeast 449 517 35,000  Level Houston Center
02:51PM 31.5042 -90.5464 58° Northeast 451 519 35,000  Level Houston Center
02:52PM 31.5683 -90.4197 59° Northeast 451 519 35,000  Level Houston Center
02:53PM 31.6328 -90.2939 59° Northeast 451 519 35,000  Level Houston Center
02:54PM 31.6969 -90.1681 59° Northeast 449 517 35,000  Level Houston Center
02:55PM 31.7606 -90.0422 59° Northeast 449 517 35,000  Level Houston Center
02:56PM 31.8247 -89.9164 59° Northeast 448 516 35,000  Level Houston Center
02:57PM 31.8794 -89.8069 59° Northeast 447 514 35,000  Level Memphis Center
02:58PM 31.9478 -89.6867 56° Northeast 447 514 35,000  Level Memphis Center
02:59PM 32.0286 -89.5781 49° Northeast 447 514 35,000  Level Memphis Center
03:00PM 32.1092 -89.4669 49° Northeast 442 509 35,000  Level Memphis Center
03:01PM 32.1878 -89.3608 49° Northeast 437 503 35,000  Level Memphis Center
03:02PM 32.2764 -89.2417 49° Northeast 437 503 35,000  Level Memphis Center
03:03PM 32.3633 -89.1400 45° Northeast 437 503 35,000  Level Memphis Center
03:04PM 32.4542 -89.0475 41° Northeast 432 497 35,000  Level Memphis Center
03:05PM 32.5469 -88.9550 40° Northeast 432 497 35,000  Level Memphis Center
03:06PM 32.6314 -88.8475 47° Northeast 427 491 35,000  Level Memphis Center
03:07PM 32.7072 -88.7378 51° Northeast 427 491 35,000  Level Memphis Center
03:08PM 32.7872 -88.6275 49° Northeast 432 497 35,000  Level Memphis Center
03:09PM 32.8628 -88.5172 51° Northeast 432 497 35,000  Level Memphis Center
03:10PM 32.9425 -88.4067 49° Northeast 432 497 35,000  Level Memphis Center
03:11PM 33.0200 -88.2958 50° Northeast 432 497 35,000  Level Memphis Center
03:12PM 33.0872 -88.1950 51° Northeast 439 505 35,000  Level Memphis Center
03:14PM 33.2694 -87.9269 51° Northeast 450 518 35,000  Level Atlanta Center
03:15PM 33.3481 -87.8136 50° Northeast 450 518 35,000  Level Atlanta Center
03:16PM 33.4267 -87.7000 50° Northeast 450 518 35,000  Level Atlanta Center
03:17PM 33.5053 -87.5839 51° Northeast 450 518 35,000  Level Atlanta Center
03:18PM 33.5836 -87.4700 50° Northeast 445 512 35,000  Level Atlanta Center
03:19PM 33.6642 -87.3533 50° Northeast 445 512 35,000  Level Atlanta Center
03:20PM 33.7422 -87.2364 51° Northeast 445 512 35,000  Level Atlanta Center
03:21PM 33.8206 -87.1194 51° Northeast 445 512 35,000  Level Atlanta Center
03:22PM 33.9006 -87.0019 51° Northeast 445 512 35,000  Level Atlanta Center
03:23PM 33.9783 -86.8844 51° Northeast 445 512 35,000  Level Atlanta Center
03:24PM 34.0583 -86.7669 51° Northeast 445 512 35,000  Level Atlanta Center
03:25PM 34.1381 -86.6464 51° Northeast 450 518 35,000  Level Atlanta Center
03:26PM 34.2178 -86.5283 51° Northeast 450 518 35,000  Level Atlanta Center
03:27PM 34.2975 -86.4100 51° Northeast 450 518 35,000  Level Atlanta Center
03:28PM 34.3769 -86.2914 51° Northeast 450 518 35,000  Level Atlanta Center
03:29PM 34.4542 -86.1725 52° Northeast 450 518 35,000  Level Atlanta Center
03:30PM 34.5311 -86.0558 51° Northeast 450 518 35,000 -780 Level Atlanta Center
03:31PM 34.6061 -85.9442 51° Northeast 440 506 33,500 -1,740 Descending Atlanta Center
03:32PM 34.6808 -85.8272 52° Northeast 440 506 31,600 -2,100 Descending Atlanta Center
03:33PM 34.7639 -85.7075 50° Northeast 430 495 29,400 -2,100 Descending Atlanta Center
03:34PM 34.8508 -85.5953 47° Northeast 435 501 27,500 -1,920 Descending Atlanta Center
03:35PM 34.9442 -85.4881 43° Northeast 447 514 25,600 -1,800 Descending Atlanta Center
03:36PM 35.0308 -85.3678 49° Northeast 458 527 24,000 -840 Descending Atlanta Center
03:37PM 35.1031 -85.2472 54° Northeast 453 521 24,000  Level Atlanta Center
03:38PM 35.1772 -85.1264 53° Northeast 448 516 24,000 -240 Level Atlanta Center
03:39PM 35.2492 -85.0025 55° Northeast 443 510 23,600 -1,620 Descending Atlanta Center
03:40PM 35.3231 -84.8814 53° Northeast 443 510 20,800 -2,940 Descending Atlanta Center
03:41PM 35.3947 -84.7675 52° Northeast 438 504 17,800 -2,940 Descending Atlanta Center
03:42PM 35.4581 -84.6481 57° Northeast 420 483 15,000 -2,880 Descending Atlanta Center
03:43PM 35.5169 -84.5389 56° Northeast 410 472 12,100 -2,040 Descending Atlanta Center
03:44PM 35.5736 -84.4344 56° Northeast 389 448 11,000 -1,020 Descending Atlanta Center
03:45PM 35.6219 -84.3506 55° Northeast 339 390 10,100 -1,140 Descending Atlanta Center
03:46PM 35.6764 -84.2714 50° Northeast 309 356 8,800 -1,440 Descending Atlanta Center
03:47PM 35.7286 -84.1972 49° Northeast 293 337 7,300 -900 Descending Atlanta Center
03:48PM 35.7828 -84.1258 47° Northeast 278 320 7,000 -180 Descending Atlanta Center
03:49PM 35.8350 -84.0592 46° Northeast 272 313 7,000 -1,260 Level Atlanta Center
03:50PM 35.8850 -83.9925 47° Northeast 265 305 4,500 -2,460 Descending Atlanta Center
03:51PM 35.8600 -83.9464 124° Southeast 142 163 2,100 -1,680 Descending Atlanta Center
03:52PM 35.8247 -83.9797 217° Southwest 65 75 1,200 -900 Descending Atlanta Center